sensor_id;sensor_type;location;lat;lon;timestamp;temperature;humidity
48988;DHT22;34799;51.440;-2.534;2024-02-14T04:25:29;12.10;99.90
48988;DHT22;34799;51.440;-2.534;2024-02-14T10:18:35;13.20;99.90
48988;DHT22;34799;51.440;-2.534;2024-02-14T10:21:40;13.30;99.90
48988;DHT22;34799;51.440;-2.534;2024-02-14T10:24:56;13.30;99.90
48988;DHT22;34799;51.440;-2.534;2024-02-14T10:27:56;13.40;99.90
48988;DHT22;34799;51.440;-2.534;2024-02-14T10:33:54;13.40;99.90
48988;DHT22;34799;51.440;-2.534;2024-02-14T10:36:27;13.50;99.90
48988;DHT22;34799;51.440;-2.534;2024-02-14T10:39:06;13.70;99.90
48988;DHT22;34799;51.440;-2.534;2024-02-14T10:41:35;14.20;99.90
48988;DHT22;34799;51.440;-2.534;2024-02-14T10:44:03;13.70;99.90
48988;DHT22;34799;51.440;-2.534;2024-02-14T10:46:33;13.60;99.90
48988;DHT22;34799;51.440;-2.534;2024-02-14T10:49:04;14.10;99.90
48988;DHT22;34799;51.440;-2.534;2024-02-14T10:51:34;13.60;99.90
48988;DHT22;34799;51.440;-2.534;2024-02-14T10:54:04;13.70;99.90
48988;DHT22;34799;51.440;-2.534;2024-02-14T10:56:33;13.70;99.90
48988;DHT22;34799;51.440;-2.534;2024-02-14T10:59:02;13.70;99.90
48988;DHT22;34799;51.440;-2.534;2024-02-14T11:01:30;13.80;99.90
48988;DHT22;34799;51.440;-2.534;2024-02-14T11:04:01;13.60;99.90
48988;DHT22;34799;51.440;-2.534;2024-02-14T11:06:29;13.80;99.90
48988;DHT22;34799;51.440;-2.534;2024-02-14T11:09:03;13.80;99.90
48988;DHT22;34799;51.440;-2.534;2024-02-14T11:11:37;13.70;99.90
48988;DHT22;34799;51.440;-2.534;2024-02-14T11:14:06;13.70;99.90
48988;DHT22;34799;51.440;-2.534;2024-02-14T11:16:36;13.80;99.90
48988;DHT22;34799;51.440;-2.534;2024-02-14T11:19:12;13.80;99.90
48988;DHT22;34799;51.440;-2.534;2024-02-14T11:21:42;13.80;99.90
48988;DHT22;34799;51.440;-2.534;2024-02-14T11:24:12;13.80;99.90
48988;DHT22;34799;51.440;-2.534;2024-02-14T11:26:50;13.80;99.90
48988;DHT22;34799;51.440;-2.534;2024-02-14T11:29:21;13.80;99.90
48988;DHT22;34799;51.440;-2.534;2024-02-14T11:32:01;13.80;99.90
48988;DHT22;34799;51.440;-2.534;2024-02-14T11:34:29;14.10;99.90
48988;DHT22;34799;51.440;-2.534;2024-02-14T11:37:02;13.90;99.90
48988;DHT22;34799;51.440;-2.534;2024-02-14T11:39:29;13.90;99.90
48988;DHT22;34799;51.440;-2.534;2024-02-14T11:41:58;13.90;99.90
48988;DHT22;34799;51.440;-2.534;2024-02-14T11:44:27;14.00;99.90
48988;DHT22;34799;51.440;-2.534;2024-02-14T11:46:55;14.00;99.90
48988;DHT22;34799;51.440;-2.534;2024-02-14T11:49:23;14.00;99.90
48988;DHT22;34799;51.440;-2.534;2024-02-14T11:51:50;13.90;99.90
48988;DHT22;34799;51.440;-2.534;2024-02-14T11:54:19;14.00;99.90
48988;DHT22;34799;51.440;-2.534;2024-02-14T11:56:47;14.00;99.90
48988;DHT22;34799;51.440;-2.534;2024-02-14T11:59:15;13.90;99.90
48988;DHT22;34799;51.440;-2.534;2024-02-14T12:01:46;14.10;99.90
48988;DHT22;34799;51.440;-2.534;2024-02-14T12:04:15;14.00;99.90
48988;DHT22;34799;51.440;-2.534;2024-02-14T12:06:43;13.90;99.90
48988;DHT22;34799;51.440;-2.534;2024-02-14T12:09:11;13.90;99.90
48988;DHT22;34799;51.440;-2.534;2024-02-14T12:11:46;14.00;99.90
48988;DHT22;34799;51.440;-2.534;2024-02-14T12:14:24;13.90;99.90
48988;DHT22;34799;51.440;-2.534;2024-02-14T12:22:16;14.00;99.90
48988;DHT22;34799;51.440;-2.534;2024-02-14T12:29:52;14.00;99.90
48988;DHT22;34799;51.440;-2.534;2024-02-14T12:35:11;14.10;99.90
48988;DHT22;34799;51.440;-2.534;2024-02-14T12:45:12;14.10;99.90
48988;DHT22;34799;51.440;-2.534;2024-02-14T12:58:23;14.10;99.90
48988;DHT22;34799;51.440;-2.534;2024-02-14T13:14:19;14.40;99.90
48988;DHT22;34799;51.440;-2.534;2024-02-14T13:19:24;14.40;99.90
48988;DHT22;34799;51.440;-2.534;2024-02-14T13:27:03;16.50;99.90
48988;DHT22;34799;51.440;-2.534;2024-02-14T13:30:09;14.50;99.90
48988;DHT22;34799;51.440;-2.534;2024-02-14T13:32:41;14.70;99.90
48988;DHT22;34799;51.440;-2.534;2024-02-14T13:35:23;14.80;99.90
48988;DHT22;34799;51.440;-2.534;2024-02-14T13:45:42;15.00;99.90
48988;DHT22;34799;51.440;-2.534;2024-02-14T13:50:52;15.20;99.90
48988;DHT22;34799;51.440;-2.534;2024-02-14T13:53:23;15.20;99.90
48988;DHT22;34799;51.440;-2.534;2024-02-14T14:06:01;15.10;99.90
48988;DHT22;34799;51.440;-2.534;2024-02-14T14:10:59;15.00;99.90
48988;DHT22;34799;51.440;-2.534;2024-02-14T14:20:58;14.80;99.90
48988;DHT22;34799;51.440;-2.534;2024-02-14T14:33:47;14.70;99.90
48988;DHT22;34799;51.440;-2.534;2024-02-14T14:36:18;14.50;99.90
48988;DHT22;34799;51.440;-2.534;2024-02-14T14:41:27;14.50;99.90
48988;DHT22;34799;51.440;-2.534;2024-02-14T14:46:27;14.50;99.90
48988;DHT22;34799;51.440;-2.534;2024-02-14T15:01:39;14.40;99.90
48988;DHT22;34799;51.440;-2.534;2024-02-14T15:06:40;14.30;99.90
48988;DHT22;34799;51.440;-2.534;2024-02-14T15:09:08;14.20;99.90
48988;DHT22;34799;51.440;-2.534;2024-02-14T15:16:36;14.10;99.90
48988;DHT22;34799;51.440;-2.534;2024-02-14T15:29:17;14.10;99.90
48988;DHT22;34799;51.440;-2.534;2024-02-14T15:42:35;14.10;99.90
48988;DHT22;34799;51.440;-2.534;2024-02-14T15:45:08;14.00;99.90
48988;DHT22;34799;51.440;-2.534;2024-02-14T15:50:46;14.10;99.90
48988;DHT22;34799;51.440;-2.534;2024-02-14T19:01:04;12.90;99.90
48988;DHT22;34799;51.440;-2.534;2024-02-14T19:03:35;12.90;99.90
48988;DHT22;34799;51.440;-2.534;2024-02-14T19:06:14;12.90;99.90
48988;DHT22;34799;51.440;-2.534;2024-02-14T19:11:23;12.90;99.90
48988;DHT22;34799;51.440;-2.534;2024-02-14T19:24:12;13.00;99.90
48988;DHT22;34799;51.440;-2.534;2024-02-14T19:26:44;13.00;99.90
48988;DHT22;34799;51.440;-2.534;2024-02-14T19:31:51;12.90;99.90
48988;DHT22;34799;51.440;-2.534;2024-02-14T19:55:53;12.80;99.90
48988;DHT22;34799;51.440;-2.534;2024-02-14T19:58:21;12.70;99.90
48988;DHT22;34799;51.440;-2.534;2024-02-14T20:00:48;12.60;99.90
48988;DHT22;34799;51.440;-2.534;2024-02-14T20:03:15;12.80;99.90
48988;DHT22;34799;51.440;-2.534;2024-02-14T20:08:11;12.60;99.90
48988;DHT22;34799;51.440;-2.534;2024-02-14T20:13:06;13.00;99.90
48988;DHT22;34799;51.440;-2.534;2024-02-14T20:15:33;12.80;99.90
48988;DHT22;34799;51.440;-2.534;2024-02-14T20:18:01;12.70;99.90
48988;DHT22;34799;51.440;-2.534;2024-02-14T20:20:29;13.00;99.90
48988;DHT22;34799;51.440;-2.534;2024-02-14T20:22:56;12.70;99.90
48988;DHT22;34799;51.440;-2.534;2024-02-14T20:25:24;12.50;99.90
48988;DHT22;34799;51.440;-2.534;2024-02-14T20:27:51;12.90;99.90
48988;DHT22;34799;51.440;-2.534;2024-02-14T20:30:20;13.00;99.90
48988;DHT22;34799;51.440;-2.534;2024-02-14T20:35:15;12.70;99.90
48988;DHT22;34799;51.440;-2.534;2024-02-14T20:37:43;12.80;99.90
48988;DHT22;34799;51.440;-2.534;2024-02-14T20:40:12;12.80;99.90
48988;DHT22;34799;51.440;-2.534;2024-02-14T20:42:44;12.70;99.90
48988;DHT22;34799;51.440;-2.534;2024-02-14T20:45:11;12.60;99.90
48988;DHT22;34799;51.440;-2.534;2024-02-14T20:47:41;12.60;99.90
48988;DHT22;34799;51.440;-2.534;2024-02-14T20:50:10;12.60;99.90
48988;DHT22;34799;51.440;-2.534;2024-02-14T20:52:40;12.80;99.90
48988;DHT22;34799;51.440;-2.534;2024-02-14T20:55:07;12.80;99.90
48988;DHT22;34799;51.440;-2.534;2024-02-14T21:00:03;12.60;99.90
48988;DHT22;34799;51.440;-2.534;2024-02-14T21:04:59;12.90;99.90
48988;DHT22;34799;51.440;-2.534;2024-02-14T21:09:55;12.60;99.90
48988;DHT22;34799;51.440;-2.534;2024-02-14T21:14:50;12.90;99.90
48988;DHT22;34799;51.440;-2.534;2024-02-14T21:17:18;13.00;99.90
48988;DHT22;34799;51.440;-2.534;2024-02-14T21:19:46;13.00;99.90
48988;DHT22;34799;51.440;-2.534;2024-02-14T21:24:41;12.60;99.90
48988;DHT22;34799;51.440;-2.534;2024-02-14T21:27:08;12.60;99.90
48988;DHT22;34799;51.440;-2.534;2024-02-14T21:29:37;12.80;99.90
48988;DHT22;34799;51.440;-2.534;2024-02-14T21:32:04;12.60;99.90
48988;DHT22;34799;51.440;-2.534;2024-02-14T21:34:33;12.90;99.90
48988;DHT22;34799;51.440;-2.534;2024-02-14T21:37:00;12.60;99.90
48988;DHT22;34799;51.440;-2.534;2024-02-14T21:39:29;12.70;99.90
48988;DHT22;34799;51.440;-2.534;2024-02-14T21:41:56;12.70;99.90
48988;DHT22;34799;51.440;-2.534;2024-02-14T21:44:24;12.70;99.90
48988;DHT22;34799;51.440;-2.534;2024-02-14T21:46:54;12.90;99.90
48988;DHT22;34799;51.440;-2.534;2024-02-14T21:49:22;12.60;99.90
48988;DHT22;34799;51.440;-2.534;2024-02-14T21:51:50;12.40;99.90
48988;DHT22;34799;51.440;-2.534;2024-02-14T21:54:20;12.80;99.90
48988;DHT22;34799;51.440;-2.534;2024-02-14T21:56:47;12.50;99.90
48988;DHT22;34799;51.440;-2.534;2024-02-14T21:59:15;12.80;99.90
48988;DHT22;34799;51.440;-2.534;2024-02-14T22:01:42;12.70;99.90
48988;DHT22;34799;51.440;-2.534;2024-02-14T22:04:09;13.00;99.90
48988;DHT22;34799;51.440;-2.534;2024-02-14T22:06:36;13.20;99.90
48988;DHT22;34799;51.440;-2.534;2024-02-14T22:09:04;12.70;99.90
48988;DHT22;34799;51.440;-2.534;2024-02-14T22:11:34;12.80;99.90
48988;DHT22;34799;51.440;-2.534;2024-02-14T22:14:03;12.80;99.90
48988;DHT22;34799;51.440;-2.534;2024-02-14T22:16:30;12.60;99.90
48988;DHT22;34799;51.440;-2.534;2024-02-14T22:18:57;13.30;99.90
48988;DHT22;34799;51.440;-2.534;2024-02-14T22:21:25;12.80;99.90
48988;DHT22;34799;51.440;-2.534;2024-02-14T22:26:21;12.60;99.90
48988;DHT22;34799;51.440;-2.534;2024-02-14T22:28:49;13.00;99.90
48988;DHT22;34799;51.440;-2.534;2024-02-14T22:31:16;12.90;99.90
48988;DHT22;34799;51.440;-2.534;2024-02-14T22:33:43;12.80;99.90
48988;DHT22;34799;51.440;-2.534;2024-02-14T22:36:11;12.70;99.90
48988;DHT22;34799;51.440;-2.534;2024-02-14T22:38:39;12.70;99.90
48988;DHT22;34799;51.440;-2.534;2024-02-14T22:41:07;12.90;99.90
48988;DHT22;34799;51.440;-2.534;2024-02-14T22:46:02;12.60;99.90
48988;DHT22;34799;51.440;-2.534;2024-02-14T22:48:29;12.90;99.90
48988;DHT22;34799;51.440;-2.534;2024-02-14T22:50:57;12.80;99.90
48988;DHT22;34799;51.440;-2.534;2024-02-14T22:53:24;12.70;99.90
48988;DHT22;34799;51.440;-2.534;2024-02-14T22:55:51;13.00;99.90
48988;DHT22;34799;51.440;-2.534;2024-02-14T22:58:19;12.80;99.90
48988;DHT22;34799;51.440;-2.534;2024-02-14T23:00:47;12.80;99.90
48988;DHT22;34799;51.440;-2.534;2024-02-14T23:03:14;12.80;99.90
48988;DHT22;34799;51.440;-2.534;2024-02-14T23:05:42;12.60;99.90
48988;DHT22;34799;51.440;-2.534;2024-02-14T23:38:05;12.90;99.90
48988;DHT22;34799;51.440;-2.534;2024-02-14T23:40:34;12.90;99.90
48988;DHT22;34799;51.440;-2.534;2024-02-14T23:43:06;12.90;99.90
48988;DHT22;34799;51.440;-2.534;2024-02-14T23:50:38;12.80;99.90
48988;DHT22;34799;51.440;-2.534;2024-02-14T23:53:06;12.50;99.90
48988;DHT22;34799;51.440;-2.534;2024-02-14T23:58:03;13.10;99.90
